Oreana, Idaho
Current Conditions -  °F | °C
As of 7:35 AM on Saturday 25 Oct 2014 (Local Time) from KMAN Reporting Station
Overcast Overcast  
Wind Chill:   Ceiling: 200
Heat Index:   Visibility: 0mi
Dew Point:   Wind: 0mph
Humidity: 100%   Direction: NA
Pressure: 29.84"   Gusts: NA
Location:  42.9915°N, 116.705°W
Report Text: KMAN 251335Z AUTO 00000KT M1/4SM OVC002 06/06 A2984 RMK AO1
Loading
Personal Weather Stations






























Interactive Weather Map
Tropical Storm Tracking
New forecast layout! Learn more

10-Day Weather Forecast

Advertisements
Track Severe Weather on mobile